Victoria, Minnesota
Current Conditions -  °F | °C
As of 10:53 PM on Thursday 30 Oct 2014 (Local Time) from KFCM Reporting Station
Few Clouds Few Clouds  
Wind Chill: 24°   Ceiling: Unl
Heat Index: 35°   Visibility: 10mi
Dew Point: 15°   Wind: 18mph
Humidity: 44%   Direction: 360°N
Pressure: 30.33"   Gusts: 28mph
Location:  44.86°N, 93.66°W
Report Text: KFCM 310353Z 36016G24KT 10SM FEW050 02/M09 A3033 RMK AO2 PK WND 35027/0305 SLP279 T00171094
Loading
Personal Weather Stations






























Interactive Weather Map
Tropical Storm Tracking
New forecast layout! Learn more

10-Day Weather Forecast

Advertisements
Track Severe Weather on mobile